Startpagina
METAR-TAF:

METAR-TAF

Vliegvelden :

Prague, Tsjechië

breedte: 50-12-59N, lengte: 014-23-42E, hoogte: 280 m

Actueel weer

Dit bericht is 59 minuten geleden gemaakt, om 14:00 UTC
Wind 5 kt uit het westnoordwesten
Temperatuur 2°C
Vochtigheid 69%
Druk 1002 hPa
Zicht 10 km of meer
Verspreide wolken op 2700 ft

METAR: LKVO 251400Z 29005KT 9999 SCT027 02/M03 Q1002

Tijdstip: 15:59 (14:59 UTC)


TAF: ontbreekt

Waarnemingen en weersverwachtingen van meer dan 4000 vliegvelden (METAR en TAF).

De beschikbare stations zijn de gele en rode punten op de kaart.

Ga met uw muis naar het station om de naam te zien.

Klik dan om waarnemingen en weersverwachtingen te zien.

kaart wijzigen: klik op de groene knoppen met een zwart kruis om in te zoomen, op de groene knop met een streepje om uit te zoomen of op de groene pijlen voor aangrenzende kaarten.


METAR-TAF: